createdAt,value
2017-11-14T00:00:18.326Z,1.30
2017-11-14T00:02:44.690Z,1.30
2017-11-14T00:05:11.630Z,1.40
2017-11-14T00:07:37.866Z,1.40
2017-11-14T00:10:04.078Z,1.40
2017-11-14T00:12:31.054Z,1.30
2017-11-14T00:14:57.277Z,1.30
2017-11-14T00:17:23.490Z,1.30
2017-11-14T00:19:50.477Z,1.20
2017-11-14T00:22:16.706Z,1.20
2017-11-14T00:24:42.952Z,1.20
2017-11-14T00:27:09.186Z,1.20
2017-11-14T00:29:35.421Z,1.00
2017-11-14T00:32:01.617Z,0.80
2017-11-14T00:34:27.858Z,0.60
2017-11-14T00:36:54.842Z,0.50
2017-11-14T00:39:21.880Z,0.60
2017-11-14T00:41:48.150Z,0.50
2017-11-14T00:44:14.382Z,0.50
2017-11-14T00:46:40.587Z,0.40
2017-11-14T00:49:06.819Z,0.40
2017-11-14T00:51:33.031Z,0.20
2017-11-14T00:53:59.997Z,0.10
2017-11-14T00:56:26.330Z,0.00
2017-11-14T00:58:52.567Z,0.10
2017-11-14T01:01:18.804Z,0.10
2017-11-14T01:03:45.042Z,0.10
2017-11-14T03:32:27.423Z,1.70
2017-11-14T03:34:53.655Z,1.60
2017-11-14T03:37:20.028Z,1.70
2017-11-14T03:39:46.983Z,1.70
2017-11-14T03:42:13.987Z,1.80
2017-11-14T03:44:40.209Z,1.80
2017-11-14T03:47:06.453Z,1.80
2017-11-14T03:49:32.666Z,1.80
2017-11-14T03:51:58.915Z,1.80
2017-11-14T03:54:25.127Z,1.80
2017-11-14T03:56:51.374Z,1.80
2017-11-14T03:59:17.616Z,1.80
2017-11-14T04:01:44.610Z,1.90
2017-11-14T04:04:10.854Z,1.80
2017-11-14T04:06:37.090Z,1.90
2017-11-14T04:09:03.406Z,1.90
2017-11-14T04:11:29.639Z,1.80
2017-11-14T04:13:55.867Z,1.90
2017-11-14T04:16:22.158Z,1.90
2017-11-14T04:18:48.411Z,1.90
2017-11-14T04:21:14.632Z,2.00
2017-11-14T04:23:40.875Z,1.90
2017-11-14T04:26:07.083Z,1.90
2017-11-14T04:28:33.314Z,1.90
2017-11-14T04:30:59.532Z,2.00
2017-11-14T04:33:25.764Z,1.90
2017-11-14T04:35:51.961Z,1.90
2017-11-14T04:38:18.913Z,1.90
2017-11-14T04:40:45.875Z,1.90
2017-11-14T04:43:12.105Z,1.90
2017-11-14T04:45:38.316Z,1.90
2017-11-14T04:48:05.274Z,2.00
2017-11-14T04:50:32.206Z,2.00
2017-11-14T04:52:59.167Z,2.00
2017-11-14T04:55:25.375Z,2.00
2017-11-14T04:57:51.615Z,2.00
2017-11-14T05:00:18.575Z,2.00
2017-11-14T05:02:44.807Z,2.00
2017-11-14T05:05:11.018Z,2.00
2017-11-14T05:07:37.457Z,2.00
2017-11-14T05:10:03.664Z,2.10
2017-11-14T05:12:30.656Z,2.10
2017-11-14T05:14:56.866Z,2.10
2017-11-14T05:17:23.093Z,2.10
2017-11-14T05:19:49.309Z,2.10
2017-11-14T05:22:16.284Z,2.20
2017-11-14T05:24:42.496Z,2.20
2017-11-14T05:27:08.720Z,2.20
2017-11-14T05:29:34.934Z,2.20
2017-11-14T05:32:01.896Z,2.20
2017-11-14T05:34:28.095Z,2.20
2017-11-14T05:36:55.154Z,2.20
2017-11-14T05:39:21.392Z,2.20
2017-11-14T05:41:47.745Z,2.20
2017-11-14T05:44:14.024Z,2.20
2017-11-14T05:46:40.284Z,2.20
2017-11-14T05:49:06.609Z,2.20
2017-11-14T05:51:32.894Z,2.10
2017-11-14T05:53:59.225Z,2.10
2017-11-14T05:56:26.218Z,2.10
2017-11-14T05:58:52.430Z,2.10
2017-11-14T06:01:19.395Z,2.10
2017-11-14T06:03:45.615Z,2.10
2017-11-14T06:06:11.838Z,2.10
2017-11-14T06:08:38.069Z,2.10
2017-11-14T06:11:05.041Z,2.00
2017-11-14T06:13:31.269Z,2.00
2017-11-14T06:15:57.522Z,2.00
2017-11-14T06:18:23.721Z,2.00
2017-11-14T06:20:49.962Z,1.90
2017-11-14T06:23:16.200Z,1.90
2017-11-14T06:25:42.463Z,1.80
2017-11-14T06:28:09.429Z,1.80
2017-11-14T06:30:35.671Z,1.70
2017-11-14T06:33:01.907Z,1.80
2017-11-14T06:35:28.131Z,1.80
2017-11-14T06:37:54.338Z,1.80
2017-11-14T06:40:20.558Z,1.80
2017-11-14T06:42:47.528Z,1.70
2017-11-14T06:45:13.758Z,1.70
2017-11-14T06:47:39.967Z,1.70
2017-11-14T06:50:06.934Z,1.80
2017-11-14T06:52:33.130Z,1.70
2017-11-14T06:55:00.098Z,1.80
2017-11-14T06:57:26.291Z,1.80
2017-11-14T06:59:52.519Z,1.90
2017-11-14T07:02:18.770Z,1.90
2017-11-14T07:04:45.703Z,2.10
2017-11-14T07:07:12.682Z,2.10
2017-11-14T07:09:38.906Z,2.10
2017-11-14T07:12:05.144Z,2.20
2017-11-14T07:14:31.353Z,2.20
2017-11-14T07:16:58.306Z,2.40
2017-11-14T07:19:24.506Z,2.30
2017-11-14T07:21:50.721Z,2.40
2017-11-14T07:24:16.958Z,2.50
2017-11-14T07:26:43.174Z,2.60
2017-11-14T07:29:09.433Z,2.70
2017-11-14T07:31:36.399Z,2.70
2017-11-14T07:34:02.595Z,2.70
2017-11-14T07:36:28.843Z,2.80
2017-11-14T07:38:55.042Z,2.80
2017-11-14T07:41:21.282Z,2.90
2017-11-14T07:43:48.219Z,3.00
2017-11-14T07:46:14.437Z,3.00
2017-11-14T07:48:40.639Z,3.20
2017-11-14T07:51:06.878Z,3.20
2017-11-14T07:53:33.139Z,3.30
2017-11-14T07:56:00.106Z,3.50
2017-11-14T07:58:26.335Z,3.40
2017-11-14T08:00:52.555Z,3.50
2017-11-14T08:03:19.511Z,3.60
2017-11-14T08:05:45.800Z,3.60
2017-11-14T08:08:12.777Z,3.70
2017-11-14T08:10:39.053Z,3.70
2017-11-14T08:13:05.282Z,3.80
2017-11-14T08:15:31.537Z,3.70
2017-11-14T08:17:57.740Z,3.80
2017-11-14T08:20:23.970Z,3.90
2017-11-14T08:22:50.187Z,3.90
2017-11-14T08:25:16.422Z,4.00
2017-11-14T08:27:42.627Z,4.10
2017-11-14T08:30:08.871Z,4.10
2017-11-14T08:32:35.078Z,4.10
2017-11-14T08:35:01.286Z,4.20
2017-11-14T08:37:28.237Z,4.40
2017-11-14T08:39:54.506Z,4.30
2017-11-14T08:42:20.723Z,4.40
2017-11-14T08:44:46.967Z,4.40
2017-11-14T08:47:13.187Z,4.50
2017-11-14T08:49:39.403Z,4.50
2017-11-14T08:52:05.633Z,4.50
2017-11-14T08:54:31.858Z,4.50
2017-11-14T08:56:58.070Z,4.70
2017-11-14T08:59:24.317Z,4.70
2017-11-14T09:01:50.543Z,4.80
2017-11-14T09:04:16.809Z,4.80
2017-11-14T09:06:43.036Z,4.90
2017-11-14T09:09:09.275Z,4.90
2017-11-14T09:11:35.509Z,4.90
2017-11-14T09:14:02.498Z,5.10
2017-11-14T09:16:28.714Z,5.10
2017-11-14T09:18:54.947Z,5.10
2017-11-14T09:21:21.158Z,5.10
2017-11-14T09:23:47.384Z,5.20
2017-11-14T09:26:14.345Z,5.30
2017-11-14T09:28:40.550Z,5.20
2017-11-14T09:31:07.549Z,5.30
2017-11-14T09:33:33.771Z,5.20
2017-11-14T09:36:00.004Z,5.30
2017-11-14T09:38:26.259Z,5.30
2017-11-14T09:40:52.509Z,5.50
2017-11-14T09:43:19.446Z,5.70
2017-11-14T09:45:45.681Z,5.70
2017-11-14T09:48:12.638Z,5.80
2017-11-14T09:50:39.611Z,5.90
2017-11-14T09:53:05.835Z,5.80
2017-11-14T09:55:32.068Z,5.90
2017-11-14T09:57:58.288Z,6.00
2017-11-14T10:00:24.607Z,5.90
2017-11-14T10:02:50.859Z,5.90
2017-11-14T10:05:17.114Z,6.00
2017-11-14T10:07:43.339Z,6.00
2017-11-14T10:10:09.570Z,6.00
2017-11-14T10:12:36.546Z,6.20
2017-11-14T10:15:03.532Z,6.20
2017-11-14T10:17:29.735Z,6.20
2017-11-14T10:19:55.994Z,6.30
2017-11-14T10:22:22.261Z,6.30
2017-11-14T10:24:48.499Z,6.30
2017-11-14T10:27:14.700Z,6.40
2017-11-14T10:29:40.922Z,6.40
2017-11-14T10:32:07.137Z,6.50
2017-11-14T10:34:33.362Z,6.50
2017-11-14T10:36:59.570Z,6.70
2017-11-14T10:39:25.842Z,6.70
2017-11-14T10:41:52.054Z,6.80
2017-11-14T10:44:18.290Z,6.90
2017-11-14T10:46:44.515Z,6.90
2017-11-14T10:49:10.755Z,7.00
2017-11-14T10:51:36.970Z,7.10
2017-11-14T10:54:03.259Z,7.00
2017-11-14T10:56:29.498Z,7.10
2017-11-14T10:58:55.782Z,7.20
2017-11-14T11:01:22.007Z,7.10
2017-11-14T11:03:48.234Z,7.20
2017-11-14T11:06:14.442Z,7.30
2017-11-14T11:08:40.662Z,7.40
2017-11-14T11:11:06.881Z,7.60
2017-11-14T11:13:33.150Z,7.70
2017-11-14T11:15:59.447Z,7.90
2017-11-14T11:18:25.751Z,7.90
2017-11-14T11:20:51.958Z,7.90
2017-11-14T11:23:18.924Z,7.90
2017-11-14T11:25:45.131Z,7.90
2017-11-14T11:28:12.110Z,8.20
2017-11-14T11:30:38.306Z,8.20
2017-11-14T11:33:05.275Z,8.10
2017-11-14T11:35:31.481Z,8.10
2017-11-14T11:37:58.500Z,7.90
2017-11-14T11:40:24.723Z,7.90
2017-11-14T11:42:51.678Z,8.10
2017-11-14T11:45:17.934Z,8.10
2017-11-14T11:47:44.142Z,8.30
2017-11-14T11:50:10.370Z,8.50
2017-11-14T11:52:36.586Z,8.50
2017-11-14T11:55:02.828Z,8.60
2017-11-14T11:57:29.080Z,8.40
2017-11-14T11:59:56.143Z,8.30
2017-11-14T12:02:22.425Z,8.40
2017-11-14T12:04:48.658Z,8.30
2017-11-14T12:07:14.894Z,8.20
2017-11-14T12:09:41.139Z,8.30
2017-11-14T12:12:08.099Z,8.50
2017-11-14T12:14:35.095Z,8.50
2017-11-14T12:17:01.340Z,8.50
2017-11-14T12:19:27.618Z,8.30
2017-11-14T12:21:53.846Z,8.30
2017-11-14T12:24:20.082Z,8.30
2017-11-14T12:26:46.294Z,8.30
2017-11-14T12:29:12.526Z,8.20
2017-11-14T12:31:38.773Z,8.30
2017-11-14T12:34:05.020Z,8.30
2017-11-14T12:36:31.254Z,8.30
2017-11-14T12:38:57.533Z,8.30
2017-11-14T12:41:23.763Z,8.30
2017-11-14T12:43:50.010Z,8.30
2017-11-14T12:46:16.245Z,8.20
2017-11-14T12:48:42.490Z,8.10
2017-11-14T12:51:08.714Z,8.20
2017-11-14T12:53:34.951Z,8.20
2017-11-14T12:56:01.162Z,8.30
2017-11-14T12:58:27.378Z,8.30
2017-11-14T13:00:53.602Z,8.20
2017-11-14T13:03:19.827Z,8.20
2017-11-14T13:05:46.050Z,8.20
2017-11-14T13:08:12.288Z,8.20
2017-11-14T13:10:38.503Z,8.10
2017-11-14T13:13:04.759Z,8.10
2017-11-14T13:15:31.000Z,8.10
2017-11-14T13:17:57.226Z,8.00
2017-11-14T13:20:24.193Z,8.00
2017-11-14T13:22:50.411Z,8.00
2017-11-14T13:25:16.647Z,8.10
2017-11-14T13:27:42.890Z,8.00
2017-11-14T13:30:09.875Z,8.00
2017-11-14T13:32:36.122Z,7.90
2017-11-14T13:35:02.346Z,7.90
2017-11-14T13:37:28.579Z,8.00
2017-11-14T13:39:54.798Z,8.00
2017-11-14T13:42:21.031Z,8.00
2017-11-14T13:44:47.233Z,8.00
2017-11-14T13:47:13.462Z,8.10
2017-11-14T13:49:39.685Z,8.20
2017-11-14T13:52:05.913Z,8.10
2017-11-14T13:54:32.131Z,8.10
2017-11-14T13:56:59.130Z,8.10
2017-11-14T13:59:25.331Z,8.10
2017-11-14T14:01:51.590Z,8.20
2017-11-14T14:04:17.794Z,8.10
2017-11-14T14:06:44.003Z,8.10
2017-11-14T14:09:10.259Z,8.10
2017-11-14T14:11:36.462Z,8.00
2017-11-14T14:14:02.703Z,8.10
2017-11-14T14:16:28.907Z,8.10
2017-11-14T14:18:55.131Z,8.10
2017-11-14T14:21:21.331Z,8.10
2017-11-14T14:23:47.553Z,8.10
2017-11-14T14:26:13.750Z,8.00
2017-11-14T14:28:39.973Z,8.00
2017-11-14T14:31:06.178Z,7.80
2017-11-14T14:33:32.411Z,7.60
2017-11-14T14:35:58.614Z,7.50
2017-11-14T14:38:25.596Z,7.50
2017-11-14T14:40:51.814Z,7.50
2017-11-14T14:43:18.035Z,7.30
2017-11-14T14:45:44.246Z,7.20
2017-11-14T14:48:11.213Z,7.00
2017-11-14T14:50:37.406Z,7.00
2017-11-14T14:53:03.622Z,6.90
2017-11-14T14:55:29.853Z,6.80
2017-11-14T14:57:56.066Z,6.80
2017-11-14T15:00:22.281Z,6.80
2017-11-14T15:02:48.531Z,6.70
2017-11-14T15:05:14.734Z,6.70
2017-11-14T15:07:40.968Z,6.60
2017-11-14T15:10:07.177Z,6.50
2017-11-14T15:12:33.412Z,6.50
2017-11-14T15:14:59.593Z,6.50
2017-11-14T15:17:25.838Z,6.50
2017-11-14T15:19:52.043Z,6.50
2017-11-14T15:22:18.278Z,6.40
2017-11-14T15:24:45.211Z,6.40
2017-11-14T15:27:11.427Z,6.40
2017-11-14T15:29:37.673Z,6.40
2017-11-14T15:32:04.642Z,6.50
2017-11-14T15:34:30.846Z,6.40
2017-11-14T15:36:57.103Z,6.50
2017-11-14T15:39:23.394Z,6.50
2017-11-14T15:41:49.606Z,6.60
2017-11-14T15:44:15.831Z,6.60
2017-11-14T15:46:42.022Z,6.60
2017-11-14T15:49:08.243Z,6.60
2017-11-14T15:51:34.441Z,6.60
2017-11-14T15:54:00.654Z,6.70
2017-11-14T15:56:26.852Z,6.70
2017-11-14T15:58:53.091Z,6.70
2017-11-14T16:01:19.324Z,6.60
2017-11-14T16:03:45.570Z,6.60
2017-11-14T16:06:11.776Z,6.60
2017-11-14T16:08:38.007Z,6.60
2017-11-14T16:11:04.226Z,6.60
2017-11-14T16:13:30.464Z,6.60
2017-11-14T16:15:56.690Z,6.60
2017-11-14T16:18:22.959Z,6.60
2017-11-14T16:20:49.211Z,6.60
2017-11-14T16:23:15.450Z,6.60
2017-11-14T16:25:41.713Z,6.70
2017-11-14T16:28:07.942Z,6.70
2017-11-14T16:30:34.167Z,6.70
2017-11-14T16:33:00.457Z,6.80
2017-11-14T16:35:26.662Z,6.80
2017-11-14T16:37:53.663Z,6.80
2017-11-14T16:40:19.882Z,6.80
2017-11-14T16:42:46.154Z,6.80
2017-11-14T16:45:12.373Z,6.80
2017-11-14T16:47:38.618Z,6.80
2017-11-14T16:50:05.609Z,6.90
2017-11-14T16:52:31.846Z,6.90
2017-11-14T16:54:58.063Z,6.90
2017-11-14T16:57:24.323Z,6.80
2017-11-14T16:59:50.541Z,6.80
2017-11-14T17:02:16.890Z,6.70
2017-11-14T17:04:43.131Z,6.70
2017-11-14T17:07:09.366Z,6.70
2017-11-14T17:09:36.316Z,6.60
2017-11-14T17:12:03.298Z,6.60
2017-11-14T17:14:29.522Z,6.50
2017-11-14T17:16:55.750Z,6.50
2017-11-14T17:19:21.994Z,6.50
2017-11-14T17:21:48.187Z,6.60
2017-11-14T17:24:14.415Z,6.50
2017-11-14T17:26:40.624Z,6.40
2017-11-14T17:29:07.604Z,6.40
2017-11-14T17:31:33.828Z,6.40
2017-11-14T17:34:00.167Z,6.30
2017-11-14T17:36:26.389Z,6.30
2017-11-14T17:38:56.535Z,6.40
2017-11-14T17:41:22.787Z,6.30
2017-11-14T17:43:48.995Z,6.30
2017-11-14T17:46:15.742Z,6.30
2017-11-14T17:48:41.975Z,6.30
2017-11-14T17:51:08.187Z,6.30
2017-11-14T17:53:34.400Z,6.30
2017-11-14T17:56:00.631Z,6.30
2017-11-14T17:58:26.834Z,6.40
2017-11-14T18:00:53.062Z,6.40
2017-11-14T18:03:19.306Z,6.40
2017-11-14T18:05:46.694Z,6.40
2017-11-14T18:08:12.893Z,6.50
2017-11-14T18:10:39.113Z,6.40
2017-11-14T18:13:05.323Z,6.40
2017-11-14T18:15:32.299Z,6.50
2017-11-14T18:17:58.503Z,6.40
2017-11-14T18:20:24.727Z,6.40
2017-11-14T18:22:50.956Z,6.40
2017-11-14T18:25:17.230Z,6.50
2017-11-14T18:27:43.454Z,6.40
2017-11-14T18:30:09.701Z,6.40
2017-11-14T18:32:35.932Z,6.40
2017-11-14T18:35:02.136Z,6.40
2017-11-14T18:37:28.379Z,6.40
2017-11-14T18:39:54.575Z,6.50
2017-11-14T18:42:20.790Z,6.50
2017-11-14T18:44:47.006Z,6.50
2017-11-14T18:47:13.967Z,6.40
2017-11-14T18:49:40.163Z,6.40
2017-11-14T18:52:06.414Z,6.40
2017-11-14T18:54:32.611Z,6.40
2017-11-14T18:56:59.584Z,6.50
2017-11-14T18:59:26.229Z,6.40
2017-11-14T19:01:52.513Z,6.40
2017-11-14T19:04:19.656Z,6.40
2017-11-14T19:06:46.805Z,6.40
2017-11-14T19:09:13.124Z,6.40
2017-11-14T19:11:39.538Z,6.40
2017-11-14T19:14:05.916Z,6.50
2017-11-14T19:16:32.307Z,6.50
2017-11-14T19:18:58.701Z,6.50
2017-11-14T19:21:25.131Z,6.50
2017-11-14T19:23:51.546Z,6.50
2017-11-14T19:26:18.039Z,6.50
2017-11-14T19:28:44.467Z,6.50
2017-11-14T19:31:10.914Z,6.50
2017-11-14T19:33:37.318Z,6.50
2017-11-14T19:36:03.797Z,6.50
2017-11-14T19:38:31.065Z,6.60
2017-11-14T19:40:57.579Z,6.50
2017-11-14T19:43:24.815Z,6.60
2017-11-14T19:45:51.334Z,6.50
2017-11-14T19:48:17.849Z,6.50
2017-11-14T19:50:44.385Z,6.60
2017-11-14T19:53:10.907Z,6.50
2017-11-14T19:55:37.422Z,6.60
2017-11-14T19:58:03.922Z,6.50
2017-11-14T20:00:31.189Z,6.60
2017-11-14T20:02:58.424Z,6.60
2017-11-14T20:05:24.958Z,6.50
2017-11-14T20:07:51.449Z,6.60
2017-11-14T20:10:17.974Z,6.60
2017-11-14T20:12:44.479Z,6.50
2017-11-14T20:15:11.755Z,6.60
2017-11-14T20:17:38.292Z,6.60
2017-11-14T20:20:04.796Z,6.60
2017-11-14T20:22:32.084Z,6.60
2017-11-14T20:24:58.600Z,6.50
2017-11-14T20:27:25.873Z,6.60
2017-11-14T20:29:52.380Z,6.60
2017-11-14T20:32:19.651Z,6.60
2017-11-14T20:34:46.151Z,6.60
2017-11-14T20:37:12.723Z,6.60
2017-11-14T20:39:39.636Z,6.60
2017-11-14T20:42:06.171Z,6.70
2017-11-14T20:44:32.679Z,6.70
2017-11-14T20:46:59.213Z,6.70
2017-11-14T20:49:25.693Z,6.70
2017-11-14T20:51:52.926Z,6.70
2017-11-14T20:54:19.429Z,6.70
2017-11-14T20:56:45.857Z,6.60
2017-11-14T20:59:12.246Z,6.70
2017-11-14T21:01:39.446Z,6.70
2017-11-14T21:04:05.857Z,6.70
2017-11-14T21:06:32.237Z,6.70
2017-11-14T21:08:58.691Z,6.80
2017-11-14T21:11:25.961Z,6.70
2017-11-14T21:13:52.452Z,6.70
2017-11-14T21:16:18.976Z,6.70
2017-11-14T21:18:45.358Z,6.70
2017-11-14T21:21:12.420Z,6.70
2017-11-14T21:23:39.361Z,6.70
2017-11-14T21:26:05.567Z,6.70
2017-11-14T21:28:31.765Z,6.70
2017-11-14T21:30:58.151Z,6.70
2017-11-14T21:33:24.550Z,6.80
2017-11-14T21:35:50.803Z,6.90
2017-11-14T21:38:17.021Z,6.80
2017-11-14T21:40:43.232Z,6.80
2017-11-14T21:43:09.453Z,6.90
2017-11-14T21:45:35.691Z,6.90
2017-11-14T21:48:01.895Z,6.90
2017-11-14T21:50:28.147Z,6.90
2017-11-14T21:52:54.347Z,6.90
2017-11-14T21:55:20.573Z,6.90
2017-11-14T21:57:46.754Z,6.90
2017-11-14T22:00:12.968Z,6.90
2017-11-14T22:02:39.201Z,6.90
2017-11-14T22:05:05.438Z,6.90
2017-11-14T22:07:32.061Z,7.00
2017-11-14T22:09:58.342Z,7.00
2017-11-14T22:12:24.577Z,7.00
2017-11-14T22:14:50.798Z,7.00
2017-11-14T22:17:16.988Z,7.00
2017-11-14T22:19:43.207Z,7.00
2017-11-14T22:22:09.407Z,7.00
2017-11-14T22:24:35.655Z,7.00
2017-11-14T22:27:02.587Z,7.10
2017-11-14T22:29:28.805Z,7.10
2017-11-14T22:31:55.037Z,7.00
2017-11-14T22:34:21.258Z,7.10
2017-11-14T22:36:47.481Z,7.10
2017-11-14T22:39:13.734Z,7.10
2017-11-14T22:41:39.938Z,7.10
2017-11-14T22:44:06.173Z,7.10
2017-11-14T22:46:32.405Z,7.10
2017-11-14T22:48:58.597Z,7.10
2017-11-14T22:51:25.567Z,7.10
2017-11-14T22:53:51.771Z,7.10
2017-11-14T22:56:18.731Z,7.10
2017-11-14T22:58:44.932Z,7.00
2017-11-14T23:01:11.903Z,7.10
2017-11-14T23:03:38.092Z,7.10
2017-11-14T23:06:04.330Z,7.10
2017-11-14T23:08:31.266Z,7.20
2017-11-14T23:10:57.490Z,7.20
2017-11-14T23:13:23.702Z,7.30
2017-11-14T23:15:49.913Z,7.20
2017-11-14T23:18:16.113Z,7.20
2017-11-14T23:20:42.457Z,7.20
2017-11-14T23:23:08.646Z,7.20
2017-11-14T23:25:35.722Z,7.30
2017-11-14T23:28:01.921Z,7.30
2017-11-14T23:30:28.138Z,7.20
2017-11-14T23:32:54.334Z,7.30
2017-11-14T23:35:20.543Z,7.30
2017-11-14T23:37:47.339Z,7.40
2017-11-14T23:40:14.305Z,7.30
2017-11-14T23:42:41.265Z,7.30
2017-11-14T23:45:07.482Z,7.30
2017-11-14T23:47:34.452Z,7.30
2017-11-14T23:50:00.719Z,7.30
2017-11-14T23:52:26.942Z,7.20
2017-11-14T23:54:53.197Z,7.20
2017-11-14T23:57:19.409Z,7.20
2017-11-14T23:59:45.658Z,7.20
